createdAt,value
2022-12-18T16:13:04.317Z,101933.28
2022-12-18T16:15:32.363Z,101934.50
2022-12-18T16:18:00.375Z,101931.34
2022-12-18T16:20:28.349Z,101943.78
2022-12-18T16:22:56.323Z,101971.97
2022-12-18T16:25:26.982Z,101990.69
2022-12-18T16:27:56.267Z,101990.59
2022-12-18T16:30:32.764Z,102030.47
2022-12-18T16:33:07.467Z,102056.94
2022-12-18T16:35:38.173Z,102075.06
2022-12-18T16:38:06.598Z,102087.91
2022-12-18T16:40:55.238Z,102095.41
2022-12-18T16:43:23.351Z,102116.56
2022-12-18T16:45:53.172Z,102106.72
2022-12-18T16:48:21.167Z,102109.81
2022-12-18T16:50:49.207Z,102092.84
2022-12-18T16:53:17.716Z,102101.13
2022-12-18T16:55:45.718Z,102100.06
2022-12-18T16:58:13.652Z,102086.00
2022-12-18T17:00:42.354Z,102075.31
2022-12-18T17:03:11.846Z,102063.78
2022-12-18T17:05:40.196Z,102060.63
2022-12-18T17:08:08.138Z,102075.25
2022-12-18T17:10:36.798Z,102062.09
2022-12-18T17:13:04.812Z,102049.94
2022-12-18T17:15:36.372Z,102048.84
2022-12-18T17:18:04.728Z,102033.59
2022-12-18T17:20:34.122Z,102036.88
2022-12-18T17:23:02.076Z,102021.69
2022-12-18T17:25:30.958Z,102010.19
2022-12-18T17:27:58.963Z,102016.84
2022-12-18T17:30:27.185Z,102017.06
2022-12-18T17:32:55.231Z,102013.06
2022-12-18T17:35:23.248Z,102013.00
2022-12-18T17:37:52.611Z,102021.25
2022-12-18T17:40:20.599Z,102025.84
2022-12-18T17:42:48.605Z,102020.31
2022-12-18T17:45:16.700Z,102011.47
2022-12-18T17:47:44.741Z,102020.06
2022-12-18T17:50:12.731Z,102026.94
2022-12-18T17:52:40.759Z,102026.06
2022-12-18T17:55:11.207Z,102034.47
2022-12-18T17:57:39.225Z,102040.31
2022-12-18T18:00:08.556Z,102048.19
2022-12-18T18:02:36.675Z,102053.19
2022-12-18T18:05:06.019Z,102053.88
2022-12-18T18:07:34.125Z,102049.28
2022-12-18T18:10:02.274Z,102056.09
2022-12-18T18:12:49.126Z,102062.06
2022-12-18T18:15:17.185Z,102060.09
2022-12-18T18:17:45.398Z,102075.69
2022-12-18T18:20:20.730Z,102073.84
2022-12-18T18:22:50.387Z,102076.09
2022-12-18T18:25:18.603Z,102085.78
2022-12-18T18:27:48.496Z,102078.81
2022-12-18T18:30:16.698Z,102082.81
2022-12-18T18:32:44.677Z,102080.88
2022-12-18T18:35:44.725Z,102083.22
2022-12-18T18:38:00.944Z,102086.47
2022-12-18T18:40:28.970Z,102101.72
2022-12-18T18:42:58.710Z,102098.78
2022-12-18T18:45:26.690Z,102100.53
2022-12-18T18:47:54.879Z,102103.09
2022-12-18T18:50:22.958Z,102096.19
2022-12-18T18:52:51.051Z,102102.22
2022-12-18T18:55:25.719Z,102090.41
2022-12-18T18:57:54.010Z,102114.66
2022-12-18T19:00:23.619Z,102108.78
2022-12-18T19:02:55.184Z,102124.31
2022-12-18T19:05:25.846Z,102131.34
2022-12-18T19:07:53.862Z,102120.84
2022-12-18T19:10:22.045Z,102140.66
2022-12-18T19:13:07.446Z,102128.28
2022-12-18T19:15:37.015Z,102133.75
2022-12-18T19:18:05.476Z,102135.44
2022-12-18T19:20:33.820Z,102137.03
2022-12-18T19:23:01.868Z,102160.16
2022-12-18T19:25:40.283Z,102158.19
2022-12-18T19:28:12.015Z,102139.22
2022-12-18T19:30:56.401Z,102155.47
2022-12-18T19:33:42.460Z,102164.97
2022-12-18T19:36:13.740Z,102166.47
2022-12-18T19:38:45.228Z,102160.03
2022-12-18T19:41:14.808Z,102165.56
2022-12-18T19:43:43.158Z,102171.56
2022-12-18T19:46:15.417Z,102157.19
2022-12-18T19:48:44.555Z,102161.97
2022-12-18T19:51:15.358Z,102162.38
2022-12-18T19:53:43.448Z,102154.19
2022-12-18T19:56:13.778Z,102147.94
2022-12-18T19:58:42.047Z,102160.94
2022-12-18T20:01:13.659Z,102149.03
2022-12-18T20:03:51.627Z,102153.19
2022-12-18T20:06:26.456Z,102160.72
2022-12-18T20:09:00.688Z,102159.88
2022-12-18T20:11:29.875Z,102167.81
2022-12-18T20:13:58.268Z,102172.72
2022-12-18T20:16:27.684Z,102171.78
2022-12-18T20:18:55.759Z,102171.50
2022-12-18T20:21:24.069Z,102176.66
2022-12-18T20:23:52.096Z,102172.88
2022-12-18T20:26:20.294Z,102168.47
2022-12-18T20:28:48.276Z,102165.78
2022-12-18T20:31:16.273Z,102173.75
2022-12-18T20:33:45.831Z,102158.69
2022-12-18T20:36:21.181Z,102167.19
2022-12-18T20:38:50.208Z,102160.91
2022-12-18T20:41:22.204Z,102160.84
2022-12-18T20:43:50.756Z,102151.97
2022-12-18T20:46:19.518Z,102148.31
2022-12-18T20:48:49.280Z,102135.22
2022-12-18T20:51:19.248Z,102137.00
2022-12-18T20:53:48.822Z,102138.63
2022-12-18T20:56:21.555Z,102133.31
2022-12-18T20:58:50.471Z,102130.91
2022-12-18T21:01:24.193Z,102140.09
2022-12-18T21:03:54.658Z,102139.19
2022-12-18T21:06:24.508Z,102133.31
2022-12-18T21:08:53.349Z,102128.91
2022-12-18T21:11:47.049Z,102136.72
2022-12-18T21:14:19.333Z,102129.75
2022-12-18T21:16:48.571Z,102129.75
2022-12-18T21:19:20.905Z,102120.06
2022-12-18T21:21:49.339Z,102118.38
2022-12-18T21:24:17.575Z,102116.06
2022-12-18T21:26:47.119Z,102130.44
2022-12-18T21:29:16.911Z,102140.09
2022-12-18T21:31:45.968Z,102143.84
2022-12-18T21:34:18.457Z,102147.38
2022-12-18T21:36:47.221Z,102152.63
2022-12-18T21:39:16.632Z,102159.47
2022-12-18T21:42:02.988Z,102161.09
2022-12-18T21:44:34.859Z,102169.97
2022-12-18T21:47:21.963Z,102173.53
2022-12-18T21:49:54.005Z,102166.50
2022-12-18T21:52:23.776Z,102178.19
2022-12-18T21:55:06.287Z,102171.06
2022-12-18T21:57:36.333Z,102190.19
2022-12-18T22:00:05.677Z,102196.44
2022-12-18T22:02:34.176Z,102169.13
2022-12-18T22:05:03.645Z,102172.63
2022-12-18T22:07:32.344Z,102165.03
2022-12-18T22:10:02.022Z,102183.44
